createdAt,value
2018-08-25T00:01:38.269Z,95.80
2018-08-25T00:03:40.590Z,95.70
2018-08-25T00:05:42.722Z,95.30
2018-08-25T00:07:44.852Z,95.30
2018-08-25T00:09:47.198Z,95.50
2018-08-25T00:11:49.353Z,95.10
2018-08-25T00:13:51.486Z,94.60
2018-08-25T00:15:53.850Z,94.20
2018-08-25T00:17:56.050Z,94.10
2018-08-25T00:19:58.245Z,94.00
2018-08-25T00:22:00.377Z,93.70
2018-08-25T00:24:02.649Z,93.70
2018-08-25T00:26:04.805Z,93.80
2018-08-25T00:28:07.234Z,93.60
2018-08-25T00:30:15.130Z,93.20
2018-08-25T00:32:17.551Z,92.90
2018-08-25T00:34:20.555Z,92.70
2018-08-25T00:36:23.717Z,92.10
2018-08-25T00:38:25.867Z,91.80
2018-08-25T00:40:28.035Z,91.70
2018-08-25T00:42:30.228Z,91.10
2018-08-25T00:44:32.433Z,90.60
2018-08-25T00:46:34.561Z,90.20
2018-08-25T00:48:36.734Z,90.20
2018-08-25T00:50:38.918Z,90.10
2018-08-25T00:52:41.279Z,90.00
2018-08-25T00:54:43.567Z,90.30
2018-08-25T00:56:45.754Z,90.20
2018-08-25T00:58:47.986Z,89.90
2018-08-25T01:00:50.130Z,90.40
2018-08-25T01:02:52.306Z,90.70
2018-08-25T01:04:54.520Z,90.30
2018-08-25T01:06:56.681Z,90.30
2018-08-25T01:08:58.840Z,90.40
2018-08-25T01:11:00.999Z,90.50
2018-08-25T01:13:03.221Z,90.70
2018-08-25T01:15:05.424Z,90.60
2018-08-25T01:17:08.024Z,91.00
2018-08-25T01:19:10.182Z,91.70
2018-08-25T01:21:12.312Z,91.80
2018-08-25T01:23:14.486Z,91.80
2018-08-25T01:25:16.635Z,92.00
2018-08-25T01:27:18.785Z,92.50
2018-08-25T01:29:21.101Z,92.90
2018-08-25T01:31:26.666Z,92.20
2018-08-25T01:33:28.830Z,92.80
2018-08-25T01:35:30.966Z,93.00
2018-08-25T01:37:33.644Z,93.00
2018-08-25T01:39:35.775Z,93.30
2018-08-25T01:41:37.945Z,93.30
2018-08-25T01:43:40.308Z,93.80
2018-08-25T01:45:42.464Z,93.80
2018-08-25T01:47:44.656Z,93.80
2018-08-25T01:49:46.830Z,93.50
2018-08-25T01:51:49.034Z,93.50
2018-08-25T01:53:51.186Z,93.40
2018-08-25T01:55:53.618Z,93.30
2018-08-25T01:57:55.810Z,92.80
2018-08-25T01:59:58.013Z,92.20
2018-08-25T02:02:00.327Z,92.80
2018-08-25T02:04:02.579Z,93.10
2018-08-25T02:06:04.771Z,93.00
2018-08-25T02:08:06.933Z,93.30
2018-08-25T02:10:09.098Z,93.10
2018-08-25T02:12:11.214Z,93.20
2018-08-25T02:14:13.340Z,93.50
2018-08-25T02:16:15.492Z,93.30
2018-08-25T02:18:17.673Z,93.70
2018-08-25T02:20:19.819Z,93.60
2018-08-25T02:22:22.029Z,93.20
2018-08-25T02:24:24.202Z,93.00
2018-08-25T02:26:26.318Z,92.90
2018-08-25T02:28:28.471Z,93.20
2018-08-25T02:30:37.370Z,93.20
2018-08-25T02:32:39.533Z,93.70
2018-08-25T02:34:41.926Z,94.30
2018-08-25T02:36:44.103Z,94.00
2018-08-25T02:38:46.655Z,94.20
2018-08-25T02:40:48.868Z,95.00
2018-08-25T02:42:51.026Z,95.20
2018-08-25T02:44:53.186Z,95.60
2018-08-25T02:46:55.327Z,95.80
2018-08-25T02:48:57.481Z,96.20
2018-08-25T02:50:59.628Z,97.00
2018-08-25T02:53:01.751Z,96.30
2018-08-25T02:55:04.246Z,96.70
2018-08-25T02:57:06.414Z,96.80
2018-08-25T02:59:08.607Z,96.90
2018-08-25T03:01:11.044Z,97.80
2018-08-25T03:03:13.259Z,98.30
2018-08-25T03:05:15.374Z,97.80
2018-08-25T03:07:17.740Z,97.70
2018-08-25T03:09:19.935Z,97.70
2018-08-25T03:11:22.050Z,97.90
2018-08-25T03:13:24.217Z,97.80
2018-08-25T03:15:26.366Z,98.30
2018-08-25T03:17:28.556Z,98.30
2018-08-25T03:19:30.755Z,97.60
2018-08-25T03:21:32.942Z,97.80
2018-08-25T03:23:35.253Z,97.80
2018-08-25T03:25:37.399Z,98.20
2018-08-25T03:27:39.755Z,97.80
2018-08-25T03:29:41.912Z,98.30
2018-08-25T03:31:44.071Z,98.20
2018-08-25T03:33:46.206Z,98.30
2018-08-25T03:35:48.401Z,98.30
2018-08-25T03:37:50.553Z,98.30
2018-08-25T03:39:52.682Z,98.30
2018-08-25T03:41:54.843Z,98.30
2018-08-25T03:43:56.967Z,98.30
2018-08-25T03:45:59.142Z,98.30
2018-08-25T03:48:08.103Z,98.30
2018-08-25T03:50:10.258Z,98.30
2018-08-25T03:52:12.410Z,98.30
2018-08-25T03:54:14.547Z,98.30
2018-08-25T03:56:16.674Z,98.30
2018-08-25T03:58:18.857Z,98.30
2018-08-25T04:00:21.026Z,98.00
2018-08-25T04:02:23.315Z,98.00
2018-08-25T04:06:34.362Z,98.00
2018-08-25T04:08:36.490Z,97.30
2018-08-25T04:10:38.640Z,96.80
2018-08-25T04:12:40.803Z,96.60
2018-08-25T04:14:42.978Z,96.80
2018-08-25T04:16:45.127Z,96.80
2018-08-25T04:18:47.303Z,97.20
2018-08-25T04:20:49.452Z,97.60
2018-08-25T04:22:51.675Z,97.80
2018-08-25T04:24:53.810Z,97.80
2018-08-25T04:26:55.987Z,98.10
2018-08-25T04:28:58.174Z,97.90
2018-08-25T04:31:00.318Z,97.70
2018-08-25T04:33:02.504Z,97.50
2018-08-25T04:35:04.742Z,98.10
2018-08-25T04:37:06.965Z,97.70
2018-08-25T04:39:10.629Z,97.70
2018-08-25T04:41:12.794Z,98.30
2018-08-25T04:43:15.186Z,98.30
2018-08-25T04:45:17.350Z,98.10
2018-08-25T04:47:19.542Z,97.90
2018-08-25T04:49:21.878Z,98.10
2018-08-25T04:51:24.043Z,98.30
2018-08-25T04:53:26.211Z,98.30
2018-08-25T04:55:28.390Z,98.30
2018-08-25T04:57:30.577Z,98.00
2018-08-25T04:59:32.755Z,98.10
2018-08-25T05:01:35.270Z,97.30
2018-08-25T05:03:37.439Z,97.70
2018-08-25T05:05:39.633Z,98.30
2018-08-25T05:07:41.838Z,97.40
2018-08-25T05:09:43.970Z,96.80
2018-08-25T05:11:46.118Z,96.70
2018-08-25T05:13:48.286Z,97.00
2018-08-25T05:15:50.477Z,96.60
2018-08-25T05:17:52.653Z,96.10
2018-08-25T05:19:54.771Z,95.70
2018-08-25T05:21:56.990Z,96.40
2018-08-25T05:23:59.106Z,96.00
2018-08-25T05:26:01.279Z,96.00
2018-08-25T05:28:03.780Z,95.50
2018-08-25T05:30:06.454Z,95.30
2018-08-25T05:32:08.630Z,95.30
2018-08-25T05:34:10.741Z,95.20
2018-08-25T05:36:12.910Z,95.50
2018-08-25T05:38:15.091Z,95.40
2018-08-25T05:40:17.238Z,95.00
2018-08-25T05:42:19.424Z,95.30
2018-08-25T05:44:21.840Z,95.00
2018-08-25T05:46:23.833Z,95.10
2018-08-25T05:48:25.982Z,95.00
2018-08-25T05:50:28.370Z,95.00
2018-08-25T05:52:30.514Z,95.00
2018-08-25T05:54:32.658Z,94.60
2018-08-25T05:56:34.944Z,94.00
2018-08-25T05:58:37.157Z,93.30
2018-08-25T06:00:39.294Z,93.50
2018-08-25T06:02:41.490Z,93.20
2018-08-25T06:04:43.646Z,92.60
2018-08-25T06:06:52.616Z,92.60
2018-08-25T06:08:54.899Z,92.20
2018-08-25T06:10:57.022Z,91.30
2018-08-25T06:12:59.194Z,91.50
2018-08-25T06:15:01.631Z,90.80
2018-08-25T06:17:03.847Z,90.20
2018-08-25T06:19:06.294Z,88.90
2018-08-25T06:21:08.423Z,89.00
2018-08-25T06:23:10.606Z,89.40
2018-08-25T06:25:12.786Z,89.10
2018-08-25T06:27:15.223Z,88.90
2018-08-25T06:29:17.414Z,88.90
2018-08-25T06:31:19.573Z,88.90
2018-08-25T06:33:21.825Z,89.10
2018-08-25T06:35:24.024Z,89.70
2018-08-25T06:37:26.254Z,90.00
2018-08-25T06:39:28.734Z,89.90
2018-08-25T06:41:30.895Z,89.70
2018-08-25T06:43:33.121Z,89.90
2018-08-25T06:45:35.202Z,89.60
2018-08-25T06:47:37.350Z,89.40
2018-08-25T06:49:39.524Z,89.20
2018-08-25T06:51:41.635Z,89.40
2018-08-25T06:53:44.330Z,89.40
2018-08-25T06:55:47.310Z,89.10
2018-08-25T06:57:49.497Z,89.20
2018-08-25T06:59:52.612Z,89.20
2018-08-25T07:01:54.826Z,89.50
2018-08-25T07:03:56.994Z,89.10
2018-08-25T07:05:59.385Z,88.90
2018-08-25T07:08:01.522Z,89.70
2018-08-25T07:10:03.694Z,89.00
2018-08-25T07:12:05.936Z,88.50
2018-08-25T07:14:08.448Z,88.90
2018-08-25T07:16:10.580Z,87.60
2018-08-25T07:18:13.226Z,87.80
2018-08-25T07:20:15.342Z,87.80
2018-08-25T07:22:17.581Z,87.40
2018-08-25T07:24:19.719Z,87.70
2018-08-25T07:26:22.096Z,87.90
2018-08-25T07:28:24.164Z,87.30
2018-08-25T07:30:26.299Z,87.30
2018-08-25T07:32:28.458Z,86.90
2018-08-25T07:34:30.612Z,87.00
2018-08-25T07:36:32.766Z,86.80
2018-08-25T07:38:34.894Z,86.30
2018-08-25T07:40:37.614Z,85.60
2018-08-25T07:42:39.838Z,85.00
2018-08-25T07:44:41.996Z,85.10
2018-08-25T07:46:44.195Z,84.90
2018-08-25T07:48:46.437Z,84.20
2018-08-25T07:50:48.551Z,84.10
2018-08-25T07:52:52.091Z,84.20
2018-08-25T07:54:54.486Z,84.40
2018-08-25T07:56:56.667Z,84.70
2018-08-25T07:58:58.839Z,85.60
2018-08-25T08:01:08.102Z,86.30
2018-08-25T08:03:11.523Z,88.30
2018-08-25T08:05:13.675Z,91.30
2018-08-25T08:07:15.890Z,91.20
2018-08-25T08:09:18.106Z,91.00
2018-08-25T08:11:20.273Z,93.60
2018-08-25T08:13:22.530Z,92.20
2018-08-25T08:15:24.651Z,94.30
2018-08-25T08:17:26.812Z,96.50
2018-08-25T08:19:28.991Z,97.00
2018-08-25T08:21:31.183Z,97.40
2018-08-25T08:25:48.885Z,98.30
2018-08-25T08:27:51.219Z,98.30
2018-08-25T08:29:53.382Z,98.30
2018-08-25T08:31:55.576Z,97.40
2018-08-25T08:33:57.941Z,96.60
2018-08-25T08:36:00.217Z,95.60
2018-08-25T08:38:02.522Z,96.30
2018-08-25T08:40:04.763Z,96.70
2018-08-25T08:42:07.130Z,97.00
2018-08-25T08:44:09.294Z,96.60
2018-08-25T08:46:11.526Z,97.30
2018-08-25T08:48:13.809Z,97.70
2018-08-25T08:50:16.070Z,97.40
2018-08-25T08:52:18.283Z,97.40
2018-08-25T08:54:20.466Z,98.30
2018-08-25T08:56:22.641Z,98.30
2018-08-25T08:58:24.878Z,98.30
2018-08-25T09:00:26.960Z,98.30
2018-08-25T09:02:29.150Z,98.30
2018-08-25T09:04:31.329Z,98.30
2018-08-25T09:06:33.577Z,98.30
2018-08-25T09:08:35.764Z,98.30
2018-08-25T09:10:37.993Z,98.30
2018-08-25T09:12:40.344Z,98.30
2018-08-25T09:14:42.606Z,98.30
2018-08-25T09:16:44.787Z,98.30
2018-08-25T09:18:47.270Z,98.30
2018-08-25T09:20:49.450Z,98.30
2018-08-25T09:22:51.579Z,98.30
2018-08-25T09:24:53.753Z,98.30
2018-08-25T09:26:55.959Z,98.30
2018-08-25T09:28:58.106Z,98.30
2018-08-25T09:31:00.454Z,98.30
2018-08-25T09:33:03.578Z,98.30
2018-08-25T09:35:05.870Z,98.30
2018-08-25T09:37:08.067Z,98.30
2018-08-25T09:39:10.860Z,98.30
2018-08-25T09:41:13.048Z,98.30
2018-08-25T09:43:15.405Z,98.30
2018-08-25T09:45:17.771Z,98.30
2018-08-25T09:47:19.947Z,98.30
2018-08-25T09:49:22.121Z,98.30
2018-08-25T09:51:24.262Z,98.30
2018-08-25T09:53:26.442Z,98.30
2018-08-25T09:55:28.602Z,98.30
2018-08-25T09:57:30.734Z,98.30
2018-08-25T09:59:32.911Z,98.30
2018-08-25T10:01:40.775Z,98.30
2018-08-25T10:03:42.954Z,97.90
2018-08-25T10:05:45.095Z,98.30
2018-08-25T10:07:47.700Z,95.40
2018-08-25T10:09:49.843Z,96.10
2018-08-25T10:11:52.208Z,95.00
2018-08-25T10:13:54.434Z,97.00
2018-08-25T10:15:57.642Z,97.10
2018-08-25T10:18:01.899Z,96.90
2018-08-25T10:20:04.944Z,98.20
2018-08-25T10:22:07.168Z,97.70
2018-08-25T10:24:09.500Z,98.30
2018-08-25T10:26:11.694Z,98.30
2018-08-25T10:28:13.896Z,98.00
2018-08-25T10:30:16.342Z,97.10
2018-08-25T10:32:18.514Z,96.80
2018-08-25T10:34:20.672Z,96.40
2018-08-25T10:36:22.898Z,96.40
2018-08-25T10:38:25.062Z,97.10
2018-08-25T10:40:27.210Z,96.20
2018-08-25T10:42:29.410Z,97.40
2018-08-25T10:44:31.552Z,97.40
2018-08-25T10:46:33.793Z,98.30
2018-08-25T10:48:35.930Z,98.30
2018-08-25T10:50:38.066Z,98.30
2018-08-25T10:52:40.236Z,98.30
2018-08-25T10:54:42.403Z,98.30
2018-08-25T10:56:44.612Z,98.30
2018-08-25T10:58:46.729Z,98.30
2018-08-25T11:00:49.495Z,98.30
2018-08-25T11:02:51.382Z,98.30
2018-08-25T11:04:53.599Z,98.30
2018-08-25T11:06:56.041Z,98.30
2018-08-25T11:08:58.448Z,98.30
2018-08-25T11:11:00.677Z,98.30
2018-08-25T11:13:02.852Z,98.30
2018-08-25T11:15:10.573Z,98.30
2018-08-25T11:17:12.989Z,98.30
2018-08-25T11:19:15.157Z,98.30
2018-08-25T11:21:17.461Z,98.30
2018-08-25T11:23:19.848Z,98.10
2018-08-25T11:25:22.046Z,96.70
2018-08-25T11:27:24.202Z,98.30
2018-08-25T11:29:26.453Z,98.30
2018-08-25T11:31:28.839Z,98.30
2018-08-25T11:33:31.345Z,98.30
2018-08-25T11:35:33.487Z,98.30
2018-08-25T11:37:35.709Z,98.30
2018-08-25T11:39:38.267Z,98.30
2018-08-25T11:41:40.919Z,98.30
2018-08-25T11:43:43.135Z,98.30
2018-08-25T11:45:45.460Z,98.30
2018-08-25T11:47:47.609Z,98.20
2018-08-25T11:49:49.762Z,98.30
2018-08-25T11:51:52.007Z,98.30
2018-08-25T11:53:54.240Z,98.30
2018-08-25T11:55:56.454Z,98.30
2018-08-25T11:57:58.691Z,97.70
2018-08-25T12:00:00.927Z,97.30
2018-08-25T12:02:03.151Z,95.10
2018-08-25T12:04:05.403Z,96.00
2018-08-25T12:06:07.616Z,94.10
2018-08-25T12:08:16.497Z,95.90
2018-08-25T12:10:18.686Z,96.20
2018-08-25T12:12:20.850Z,95.70
2018-08-25T12:14:23.214Z,96.90
2018-08-25T12:16:25.428Z,95.90
2018-08-25T12:18:27.502Z,97.00
2018-08-25T12:20:29.997Z,97.20
2018-08-25T12:22:32.162Z,98.30
2018-08-25T12:24:34.384Z,98.30
2018-08-25T12:26:36.588Z,97.20
2018-08-25T12:28:38.798Z,97.70
2018-08-25T12:30:41.004Z,98.30
2018-08-25T12:32:43.178Z,97.00
2018-08-25T12:34:45.294Z,96.10
2018-08-25T12:36:47.450Z,95.00
2018-08-25T12:38:50.400Z,93.70
2018-08-25T12:40:52.519Z,93.50
2018-08-25T12:42:55.422Z,95.40
2018-08-25T12:44:57.681Z,97.00
2018-08-25T12:46:59.851Z,97.00
2018-08-25T12:49:02.026Z,96.50
2018-08-25T12:51:04.538Z,95.10
2018-08-25T12:53:06.702Z,95.60
2018-08-25T12:55:08.929Z,94.20
2018-08-25T12:57:11.125Z,93.60
2018-08-25T12:59:13.318Z,94.70
2018-08-25T13:16:23.591Z,95.00
2018-08-25T13:18:25.716Z,96.30
2018-08-25T13:20:27.882Z,96.30
2018-08-25T13:22:30.122Z,95.50
2018-08-25T13:24:32.546Z,94.90
2018-08-25T13:26:34.706Z,94.50
2018-08-25T13:28:37.723Z,95.60
2018-08-25T13:30:39.870Z,96.30
2018-08-25T13:32:42.015Z,95.90
2018-08-25T13:34:44.173Z,96.70
2018-08-25T13:36:46.388Z,95.70
2018-08-25T13:38:48.627Z,96.80
2018-08-25T13:40:51.073Z,96.60
2018-08-25T13:42:53.211Z,95.40
2018-08-25T13:44:56.264Z,95.30
2018-08-25T13:46:58.518Z,96.30
2018-08-25T13:49:00.672Z,95.40
2018-08-25T13:51:02.980Z,93.80
2018-08-25T13:53:05.219Z,96.30
2018-08-25T13:55:07.386Z,95.70
2018-08-25T13:57:09.611Z,95.70
2018-08-25T13:59:11.759Z,95.30
2018-08-25T14:01:14.114Z,95.50
2018-08-25T14:03:16.264Z,95.60
2018-08-25T14:05:18.447Z,95.60
2018-08-25T14:07:20.573Z,95.40
2018-08-25T14:09:22.803Z,95.10
2018-08-25T14:11:25.266Z,95.40
2018-08-25T14:13:27.375Z,95.40
2018-08-25T14:15:29.498Z,94.40
2018-08-25T14:17:31.668Z,94.70
2018-08-25T14:19:33.829Z,93.40
2018-08-25T14:21:36.414Z,92.10
2018-08-25T14:23:38.610Z,92.00
2018-08-25T14:25:40.742Z,92.20
2018-08-25T14:27:42.885Z,91.20
2018-08-25T14:29:45.126Z,91.60
2018-08-25T14:31:47.541Z,91.00
2018-08-25T14:33:49.775Z,89.30
2018-08-25T14:35:51.901Z,89.80
2018-08-25T14:37:54.103Z,89.10
2018-08-25T14:39:56.322Z,88.50
2018-08-25T14:41:58.591Z,88.70
2018-08-25T14:44:01.356Z,89.10
2018-08-25T14:46:03.589Z,89.40
2018-08-25T14:48:10.396Z,89.80
2018-08-25T14:50:12.558Z,91.60
2018-08-25T14:52:14.951Z,92.50
2018-08-25T14:54:17.118Z,92.00
2018-08-25T14:56:19.414Z,91.60
2018-08-25T14:58:21.578Z,91.90
2018-08-25T15:00:23.876Z,93.40
2018-08-25T15:02:26.060Z,94.10
2018-08-25T15:04:28.306Z,94.80
2018-08-25T15:06:30.670Z,94.20
2018-08-25T15:08:33.020Z,94.00
2018-08-25T15:10:35.173Z,94.40
2018-08-25T15:12:37.820Z,95.50
2018-08-25T15:14:40.047Z,95.40
2018-08-25T15:16:42.178Z,96.60
2018-08-25T15:18:44.470Z,97.40
2018-08-25T15:20:46.726Z,95.40
2018-08-25T15:22:48.961Z,96.20
2018-08-25T15:24:51.210Z,95.40
2018-08-25T15:26:54.173Z,94.00
2018-08-25T15:28:56.343Z,91.30
2018-08-25T15:30:58.729Z,90.20
2018-08-25T15:33:01.314Z,88.50
2018-08-25T15:35:10.291Z,88.80
2018-08-25T15:37:12.485Z,88.40
2018-08-25T15:39:15.624Z,88.90
2018-08-25T15:41:17.804Z,88.30
2018-08-25T15:43:20.327Z,87.50
2018-08-25T15:45:22.513Z,87.90
2018-08-25T15:47:24.713Z,87.50
2018-08-25T15:49:27.055Z,87.60
2018-08-25T15:51:29.275Z,87.20
2018-08-25T15:53:31.515Z,87.00
2018-08-25T15:55:33.739Z,86.40
2018-08-25T15:57:36.028Z,86.40
2018-08-25T15:59:39.048Z,86.10
2018-08-25T16:01:41.503Z,86.20
2018-08-25T16:03:43.726Z,86.90
2018-08-25T16:05:45.985Z,87.10
2018-08-25T16:07:48.522Z,87.10
2018-08-25T16:09:50.811Z,87.50
2018-08-25T16:11:53.085Z,88.60
2018-08-25T16:13:55.590Z,89.30
2018-08-25T16:15:57.787Z,90.10
2018-08-25T16:17:59.961Z,90.70
2018-08-25T16:20:02.377Z,90.60
2018-08-25T16:22:04.451Z,90.90
2018-08-25T16:24:06.628Z,90.70
2018-08-25T16:26:08.968Z,90.40
2018-08-25T16:28:11.153Z,90.20
2018-08-25T16:30:13.355Z,90.00
2018-08-25T16:32:15.690Z,88.30
2018-08-25T16:34:17.863Z,89.30
2018-08-25T16:36:20.035Z,89.00
2018-08-25T16:38:22.227Z,88.50
2018-08-25T16:40:24.478Z,89.00
2018-08-25T16:42:26.806Z,89.40
2018-08-25T16:44:28.936Z,89.70
2018-08-25T16:46:31.096Z,89.70
2018-08-25T16:48:33.310Z,89.50
2018-08-25T16:50:35.566Z,89.70
2018-08-25T16:52:37.771Z,89.70
2018-08-25T16:54:40.043Z,89.70
2018-08-25T16:56:42.491Z,89.90
2018-08-25T16:58:44.736Z,90.20
2018-08-25T17:00:48.152Z,89.60
2018-08-25T17:02:50.413Z,89.70
2018-08-25T17:04:52.686Z,90.00
2018-08-25T17:06:54.828Z,89.60
2018-08-25T17:08:57.374Z,88.50
2018-08-25T17:11:00.821Z,88.90
2018-08-25T17:13:03.071Z,89.00
2018-08-25T17:15:05.572Z,88.80
2018-08-25T17:17:07.799Z,88.60
2018-08-25T17:19:09.955Z,88.50
2018-08-25T17:21:12.216Z,88.40
2018-08-25T17:23:16.642Z,88.90
2018-08-25T17:25:18.800Z,89.10
2018-08-25T17:27:20.987Z,89.40
2018-08-25T17:29:23.207Z,89.80
2018-08-25T17:31:26.091Z,89.80
2018-08-25T17:33:33.097Z,90.30
2018-08-25T17:35:36.956Z,90.10
2018-08-25T17:37:39.150Z,90.60
2018-08-25T17:39:41.331Z,90.80
2018-08-25T17:41:44.332Z,91.10
2018-08-25T17:43:48.296Z,90.70
2018-08-25T17:45:51.262Z,90.80
2018-08-25T17:47:54.880Z,91.40
2018-08-25T17:49:57.318Z,91.20
2018-08-25T17:51:59.721Z,91.90
2018-08-25T17:54:02.087Z,92.10
2018-08-25T17:56:07.458Z,92.20
2018-08-25T17:58:11.180Z,92.50
2018-08-25T18:00:15.179Z,92.80
2018-08-25T18:02:17.577Z,92.90
2018-08-25T18:04:19.844Z,93.40
2018-08-25T18:06:22.020Z,93.70
2018-08-25T18:08:24.220Z,94.30
2018-08-25T18:10:26.437Z,94.50
2018-08-25T18:12:28.656Z,94.70
2018-08-25T18:14:30.819Z,94.70
2018-08-25T18:16:33.191Z,95.10
2018-08-25T18:18:35.390Z,95.10
2018-08-25T18:20:37.615Z,95.20
2018-08-25T18:22:39.846Z,95.30
2018-08-25T18:24:41.996Z,95.70
2018-08-25T18:26:44.181Z,96.10
2018-08-25T18:28:46.429Z,96.20
2018-08-25T18:30:48.647Z,96.60
2018-08-25T18:32:55.992Z,96.70
2018-08-25T18:34:58.541Z,96.70
2018-08-25T18:37:00.723Z,97.00
2018-08-25T18:39:04.778Z,97.30
2018-08-25T18:41:06.995Z,97.50
2018-08-25T18:43:09.262Z,97.60
2018-08-25T18:45:11.433Z,97.60
2018-08-25T18:47:13.638Z,97.50
2018-08-25T18:49:15.823Z,97.40
2018-08-25T18:51:18.047Z,97.50
2018-08-25T18:53:20.200Z,97.70
2018-08-25T18:55:22.367Z,97.80
2018-08-25T18:57:24.547Z,98.30
2018-08-25T18:59:27.242Z,98.30
2018-08-25T19:01:29.675Z,98.30
2018-08-25T19:03:31.893Z,98.30
2018-08-25T19:05:34.106Z,98.30
2018-08-25T19:07:36.403Z,98.30
2018-08-25T19:09:38.604Z,98.30
2018-08-25T19:11:40.782Z,98.30
2018-08-25T19:13:43.427Z,98.30
2018-08-25T19:15:45.598Z,98.30
2018-08-25T19:17:47.778Z,98.30
2018-08-25T19:19:49.990Z,98.30
2018-08-25T19:21:52.286Z,98.30
2018-08-25T19:23:54.504Z,98.30
2018-08-25T19:25:56.822Z,98.30
2018-08-25T19:27:59.015Z,98.30
2018-08-25T19:30:01.243Z,98.30
2018-08-25T19:32:03.476Z,98.30
2018-08-25T19:34:05.646Z,98.30
2018-08-25T19:36:07.813Z,98.30
2018-08-25T19:38:10.307Z,98.30
2018-08-25T19:40:12.475Z,98.30
2018-08-25T19:42:14.678Z,98.30
2018-08-25T19:44:17.194Z,98.30
2018-08-25T19:46:19.382Z,98.30
2018-08-25T19:48:21.728Z,97.60
2018-08-25T19:50:24.039Z,97.00
2018-08-25T19:52:26.260Z,96.90
2018-08-25T19:54:28.484Z,97.10
2018-08-25T19:56:30.652Z,96.90
2018-08-25T19:58:32.842Z,96.80
2018-08-25T20:00:35.036Z,97.00
2018-08-25T20:02:37.208Z,97.10
2018-08-25T20:04:39.530Z,97.00
2018-08-25T20:06:41.730Z,97.30
2018-08-25T20:08:43.959Z,97.10
2018-08-25T20:10:46.191Z,97.10
2018-08-25T20:12:48.371Z,97.00
2018-08-25T20:14:50.721Z,97.00
2018-08-25T20:16:53.150Z,96.90
2018-08-25T20:18:55.338Z,97.00
2018-08-25T20:20:57.668Z,97.50
2018-08-25T20:23:00.151Z,97.30
2018-08-25T20:25:02.347Z,97.40
2018-08-25T20:27:04.780Z,97.90
2018-08-25T20:29:07.003Z,98.30
2018-08-25T20:31:09.180Z,98.30
2018-08-25T20:33:11.363Z,98.30
2018-08-25T20:35:13.534Z,98.20
2018-08-25T20:37:15.711Z,97.70
2018-08-25T20:39:17.902Z,97.40
2018-08-25T20:41:20.090Z,97.20
2018-08-25T20:43:22.268Z,98.20
2018-08-25T20:45:24.502Z,98.30
2018-08-25T20:47:26.646Z,98.10
2018-08-25T20:49:29.811Z,97.10
2018-08-25T20:51:32.479Z,96.80
2018-08-25T20:53:35.014Z,96.80
2018-08-25T20:55:37.194Z,97.70
2018-08-25T20:57:39.367Z,98.30
2018-08-25T20:59:41.520Z,98.30
2018-08-25T21:01:43.960Z,98.30
2018-08-25T21:03:46.114Z,98.30
2018-08-25T21:05:48.257Z,98.30
2018-08-25T21:07:50.610Z,98.30
2018-08-25T21:09:52.810Z,98.30
2018-08-25T21:11:54.989Z,98.30
2018-08-25T21:13:57.162Z,98.30
2018-08-25T21:15:59.483Z,98.30
2018-08-25T21:18:01.594Z,98.30
2018-08-25T21:20:03.823Z,98.30
2018-08-25T21:22:06.040Z,98.30
2018-08-25T21:24:08.232Z,98.30
2018-08-25T21:26:10.410Z,98.30
2018-08-25T21:28:12.701Z,98.30
2018-08-25T21:30:14.902Z,98.30
2018-08-25T21:32:17.067Z,98.30
2018-08-25T21:34:19.226Z,98.30
2018-08-25T21:36:21.412Z,98.30
2018-08-25T21:38:23.570Z,98.30
2018-08-25T21:40:25.906Z,98.30
2018-08-25T21:42:28.080Z,98.30
2018-08-25T21:44:30.245Z,98.30
2018-08-25T21:46:32.405Z,98.30
2018-08-25T21:48:34.698Z,98.30
2018-08-25T21:50:36.887Z,98.30
2018-08-25T21:52:39.062Z,98.30
2018-08-25T21:54:41.258Z,98.30
2018-08-25T21:56:43.501Z,98.30
2018-08-25T21:58:45.679Z,98.30
2018-08-25T22:00:53.502Z,98.30
2018-08-25T22:02:55.652Z,98.30
2018-08-25T22:04:57.806Z,98.30
2018-08-25T22:06:59.962Z,98.30
2018-08-25T22:09:02.697Z,98.30
2018-08-25T22:11:04.884Z,98.30
2018-08-25T22:13:07.075Z,98.30
2018-08-25T22:15:09.382Z,98.30
2018-08-25T22:17:11.538Z,98.30
2018-08-25T22:19:13.722Z,98.30
2018-08-25T22:21:16.325Z,98.30
2018-08-25T22:23:18.354Z,98.30
2018-08-25T22:25:20.522Z,98.30
2018-08-25T22:27:22.713Z,98.30
2018-08-25T22:29:24.887Z,98.30
2018-08-25T22:31:27.191Z,98.30
2018-08-25T22:33:29.600Z,98.30
2018-08-25T22:35:31.755Z,98.30
2018-08-25T22:37:33.952Z,98.30
2018-08-25T22:39:36.240Z,98.30
2018-08-25T22:41:38.621Z,98.30
2018-08-25T22:43:40.844Z,98.30
2018-08-25T22:45:43.031Z,98.30
2018-08-25T22:47:45.223Z,98.30
2018-08-25T22:49:47.704Z,98.30
2018-08-25T22:51:49.986Z,98.30
2018-08-25T22:53:52.170Z,98.30
2018-08-25T22:55:54.322Z,98.30
2018-08-25T22:57:56.806Z,98.30
2018-08-25T23:00:00.056Z,98.30
2018-08-25T23:02:02.298Z,98.30
2018-08-25T23:04:04.870Z,98.30
2018-08-25T23:06:07.130Z,98.30
2018-08-25T23:08:09.297Z,98.30
2018-08-25T23:10:11.764Z,98.30
2018-08-25T23:12:13.923Z,98.30
2018-08-25T23:14:16.083Z,98.30
2018-08-25T23:16:18.257Z,98.30
2018-08-25T23:18:20.459Z,98.30
2018-08-25T23:20:22.663Z,98.30
2018-08-25T23:22:25.155Z,98.30
2018-08-25T23:24:27.335Z,98.30
2018-08-25T23:26:29.499Z,98.30
2018-08-25T23:28:31.722Z,98.30
2018-08-25T23:30:33.918Z,98.30
2018-08-25T23:32:36.106Z,98.30
2018-08-25T23:34:38.279Z,98.30
2018-08-25T23:36:40.470Z,98.30
2018-08-25T23:38:42.650Z,98.30
2018-08-25T23:40:45.106Z,98.30
2018-08-25T23:42:47.299Z,98.30
2018-08-25T23:44:49.470Z,98.30
2018-08-25T23:46:51.764Z,98.30
2018-08-25T23:48:54.636Z,98.30
2018-08-25T23:50:56.831Z,98.30
2018-08-25T23:52:59.052Z,98.30
2018-08-25T23:55:01.542Z,98.30
2018-08-25T23:57:03.802Z,98.30
2018-08-25T23:59:06.378Z,98.30
